Date,TemperatureHighF,TemperatureAvgF,TemperatureLowF,DewpointHighF,DewpointAvgF,DewpointLowF,HumidityHigh,HumidityAvg,HumidityLow,PressureMaxIn,PressureMinIn,WindSpeedMaxMPH,WindSpeedAvgMPH,GustSpeedMaxMPH,PrecipitationSumIn
2013-1-1,41,38,30,33,27,17,82,66,51,30.01,29.83,25,9,27,0.00
2013-1-2,32,29,24,21,17,13,68,59,49,30.18,30.00,20,6,21,0.00
2013-1-3,32,29,24,22,19,15,76,66,54,30.22,30.09,19,6,20,0.00
2013-1-4,37,34,31,29,25,21,75,69,63,30.10,29.95,34,12,34,0.00
2013-1-5,45,36,30,28,25,22,85,63,46,30.31,30.00,24,6,25,0.00
2013-1-6,42,38,32,37,33,26,94,84,69,30.26,30.00,29,7,29,0.01
2013-1-7,45,38,30,34,29,24,85,70,46,30.44,30.06,22,5,22,0.00
2013-1-8,46,43,39,40,37,31,91,80,69,30.47,30.38,24,11,24,0.00
2013-1-9,47,41,33,43,38,30,96,86,78,30.43,30.13,24,6,25,0.00
2013-1-10,48,43,37,39,28,24,83,56,40,30.58,30.21,27,7,27,0.00
2013-1-11,47,41,32,46,36,28,96,84,69,30.57,30.15,19,7,19,0.25
2013-1-12,48,46,44,47,45,43,100,96,94,30.19,30.06,23,8,24,0.25
2013-1-13,49,45,42,48,44,41,98,97,96,30.21,30.05,9,2,9,0.08
2013-1-14,58,49,38,56,45,31,98,87,56,30.30,29.97,26,6,26,0.02
2013-1-15,40,38,36,35,33,30,94,82,71,30.35,30.23,14,5,17,0.15
2013-1-16,41,38,36,40,36,33,100,94,86,30.25,29.80,22,8,23,0.57
2013-1-17,44,40,34,38,33,28,91,75,58,30.12,29.93,20,7,21,0.57
2013-1-18,35,29,26,28,14,5,77,52,37,30.54,30.03,30,9,31,0.00
2013-1-19,47,43,34,41,34,21,81,70,58,30.46,29.98,39,22,44,0.00
2013-1-20,53,45,33,41,32,14,81,62,25,30.04,29.71,37,16,37,0.00
2013-1-21,33,30,27,30,19,10,94,66,43,30.15,29.83,24,5,24,0.00
2013-1-22,28,22,16,27,9,-3,94,58,38,30.19,29.82,29,10,29,0.00
2013-1-23,20,16,13,3,0,-3,62,48,40,30.26,30.17,28,8,28,0.00
2013-1-24,23,17,10,7,3,0,74,53,39,30.38,30.16,33,9,33,0.00
2013-1-25,26,20,15,19,10,2,90,64,39,30.43,30.08,15,5,15,0.00
2013-1-26,27,23,18,18,12,5,89,65,44,30.36,30.05,29,8,29,0.00
2013-1-27,33,25,16,16,11,7,77,55,35,30.53,30.36,24,6,25,0.00
2013-1-28,38,31,21,36,26,13,94,82,59,30.52,30.03,24,6,24,0.11
2013-1-29,43,38,34,42,36,33,96,93,84,30.21,30.02,14,5,15,0.11
2013-1-30,54,49,40,52,48,38,98,96,93,30.15,29.49,34,14,36,0.01
2013-1-31,56,46,33,54,35,16,97,67,38,29.78,29.13,57,22,57,0.32
2013-2-1,33,31,26,20,12,5,59,46,35,30.22,29.78,32,12,32,0.32
2013-2-2,32,28,23,24,16,10,89,63,49,30.34,30.10,33,11,33,0.00
2013-2-3,32,28,24,24,21,16,92,76,54,30.10,29.80,15,5,16,0.01
2013-2-4,33,29,26,22,15,10,82,57,39,30.01,29.81,28,9,30,0.00
2013-2-5,32,30,28,30,26,16,92,86,56,30.02,29.93,20,7,20,0.00
2013-2-6,41,34,30,31,24,9,94,69,40,30.38,29.94,26,7,26,0.03
2013-2-7,36,31,26,28,15,3,75,53,34,30.55,30.37,31,9,32,0.03
2013-2-8,39,36,27,35,33,25,95,89,74,30.40,29.49,51,23,52,2.31
2013-2-9,30,26,22,26,20,11,95,77,54,30.31,29.64,41,14,42,0.00
2013-2-10,34,26,17,24,15,8,82,64,44,30.50,30.31,15,4,15,0.06
2013-2-11,46,41,26,45,39,21,97,92,77,30.39,29.69,30,7,30,0.49
2013-2-12,46,41,36,42,32,27,97,71,50,29.98,29.72,33,9,33,0.49
2013-2-13,43,36,31,32,28,25,91,72,52,29.97,29.69,11,4,12,0.00
2013-2-14,44,38,30,38,32,24,94,81,48,30.05,29.72,17,6,17,0.04
2013-2-15,46,42,39,42,39,37,100,91,85,30.07,29.96,21,7,22,0.04
2013-2-16,43,37,31,41,31,26,93,82,63,29.96,29.69,24,8,25,0.02
2013-2-17,32,27,19,28,12,4,92,54,31,29.90,29.58,49,16,49,0.02
2013-2-18,34,27,19,23,11,5,66,51,37,30.26,29.90,34,11,38,0.00
2013-2-19,45,41,33,44,36,22,96,84,61,30.26,29.67,25,10,26,0.23
2013-2-20,42,33,27,37,19,12,83,56,42,29.96,29.69,31,12,32,0.23
2013-2-21,36,30,25,19,16,13,69,57,45,30.27,29.94,31,12,31,0.00
2013-2-22,41,34,27,32,26,18,81,73,56,30.42,30.25,22,10,25,0.00
2013-2-23,41,39,38,39,37,32,95,90,79,30.32,29.80,31,15,33,0.09
2013-2-24,44,39,34,39,36,30,96,88,74,29.94,29.72,31,11,31,0.02
2013-2-25,45,39,32,36,31,27,86,74,55,30.27,29.94,17,6,19,0.02
2013-2-26,42,40,37,38,35,33,93,84,75,30.35,29.97,41,11,41,0.06
2013-2-27,47,44,40,45,42,37,95,93,83,29.97,29.55,59,18,59,0.52
2013-2-28,44,42,39,42,40,36,95,92,85,29.66,29.57,18,3,18,0.52
2013-3-1,46,41,36,38,34,30,94,76,53,29.77,29.59,21,7,21,0.10
2013-3-2,40,38,35,31,28,26,74,67,59,29.77,29.69,24,8,24,0.03
2013-3-3,39,34,31,28,25,22,79,70,54,29.73,29.66,25,9,25,0.00
2013-3-4,43,36,31,25,23,21,69,60,47,29.87,29.72,30,12,30,0.00
2013-3-5,48,39,33,36,29,23,89,67,46,30.07,29.86,28,7,28,0.00
2013-3-6,44,40,36,38,35,33,92,84,72,30.04,29.85,46,21,56,0.02
2013-3-7,39,36,34,35,33,32,95,91,81,30.03,29.86,46,17,49,0.25
2013-3-8,40,35,33,35,33,30,96,91,68,30.14,29.96,26,10,28,0.51
2013-3-9,52,42,34,36,29,22,90,64,31,30.37,30.13,25,10,27,0.01
2013-3-10,40,37,32,37,33,29,92,86,79,30.43,30.35,17,7,19,0.00
2013-3-11,46,42,35,44,40,33,96,92,87,30.37,30.16,18,7,18,0.00
2013-3-12,51,48,45,50,46,44,98,94,91,30.16,29.75,40,15,42,0.48
2013-3-13,51,44,36,46,34,26,96,69,39,29.91,29.81,26,8,26,0.48
2013-3-14,41,35,31,32,19,12,74,53,39,29.95,29.86,33,11,33,0.00
2013-3-15,45,37,30,36,23,12,76,57,39,29.99,29.75,32,10,32,0.00
2013-3-16,41,36,32,31,27,21,92,72,50,29.93,29.79,23,5,24,0.01
2013-3-17,38,34,29,32,21,13,92,63,38,30.33,29.93,24,6,24,0.01
2013-3-18,38,33,28,35,22,13,94,65,45,30.45,30.07,43,15,43,0.04
2013-3-19,42,39,36,41,37,34,95,93,88,30.07,29.64,43,14,45,0.31
2013-3-20,43,38,33,34,26,19,90,62,43,29.89,29.80,34,9,34,0.01
2013-3-21,40,35,30,32,27,24,90,74,56,29.86,29.65,23,7,23,0.00
2013-3-22,42,36,28,27,21,16,87,55,37,29.88,29.71,27,8,27,0.00
2013-3-23,46,40,34,25,23,19,69,51,36,29.92,29.78,30,11,31,0.00
2013-3-24,46,39,32,32,25,20,73,58,42,29.95,29.75,26,7,28,0.00
2013-3-25,42,39,35,35,32,29,93,78,60,29.78,29.46,44,12,44,0.08
2013-3-26,51,42,35,38,31,27,92,65,42,29.87,29.57,21,6,21,0.08
2013-3-27,53,44,35,29,26,20,70,52,31,29.95,29.85,20,7,22,0.00
2013-3-28,50,44,38,36,32,28,73,63,52,30.10,29.94,23,7,23,0.00
2013-3-29,56,47,41,39,34,29,72,60,37,30.14,30.05,26,9,27,0.00
2013-4-5,60,50,42,45,34,23,92,60,26,29.96,29.72,24,7,27,0.03
2013-4-6,48,42,37,33,22,8,72,47,20,30.37,29.96,29,9,30,0.03
2013-4-7,49,46,42,45,40,33,92,80,71,30.36,30.08,26,10,26,0.00
2013-4-8,60,51,46,50,46,44,93,84,63,30.11,30.02,22,6,24,0.00
2013-4-9,80,57,48,52,47,39,98,74,25,30.09,29.94,25,8,27,0.00
2013-4-10,67,53,49,54,48,46,92,83,58,30.07,29.85,33,7,33,0.03
2013-4-11,60,51,47,53,48,41,96,90,75,30.10,29.81,31,12,31,0.11
2013-4-12,48,44,42,43,41,38,95,89,75,30.10,29.73,57,21,57,0.50
2013-4-13,52,45,39,44,41,37,95,86,59,30.01,29.73,24,10,26,0.01
2013-4-14,56,50,45,47,38,27,94,65,34,30.26,30.00,28,9,28,0.00
2013-4-15,49,45,40,44,37,29,91,73,55,30.43,30.26,19,7,19,0.00
2013-4-16,52,50,46,50,46,44,92,89,82,30.43,30.17,28,12,28,0.00
2013-4-17,68,56,50,53,45,33,94,71,28,30.34,30.15,22,8,23,0.01
2013-4-18,52,50,44,50,45,41,94,83,69,30.41,30.16,28,12,28,0.00
2013-4-19,58,54,51,57,53,50,98,97,94,30.16,29.74,44,15,44,0.13
2013-4-20,58,53,47,57,43,29,98,73,39,30.30,29.71,40,10,44,0.30
2013-4-21,53,45,38,35,28,20,70,52,31,30.69,30.29,23,9,24,0.00
2013-4-22,51,45,39,42,37,33,85,74,55,30.70,30.53,39,16,41,0.00
2013-4-23,49,45,42,44,41,36,93,86,77,30.53,30.07,33,15,33,0.00
2013-4-24,55,48,44,48,45,41,97,87,71,30.08,29.94,30,12,30,0.00
2013-4-25,62,53,48,52,42,31,97,70,33,30.31,29.94,26,9,26,0.02
2013-4-26,58,52,42,48,44,38,90,75,58,30.44,30.31,12,4,12,0.02
2013-4-27,60,49,45,47,41,31,96,75,35,30.44,30.36,15,5,15,0.00
2013-4-28,56,51,44,50,46,42,100,85,61,30.38,30.28,18,7,18,0.00
2013-4-29,55,53,52,49,48,46,89,83,74,30.32,30.26,18,9,19,0.00
2013-4-30,57,54,46,49,44,38,87,72,53,30.38,30.26,21,9,21,0.00
2013-5-1,57,50,44,50,45,35,93,81,66,30.52,30.38,24,9,26,0.00
2013-5-2,59,53,44,50,47,41,92,79,65,30.51,30.38,31,6,31,0.00
2013-5-3,56,51,46,50,46,42,91,80,64,30.50,30.40,32,12,32,0.00
2013-5-4,57,50,44,48,45,42,94,84,71,30.40,30.31,26,12,26,0.00
2013-5-5,53,48,42,47,44,39,93,86,77,30.33,30.28,28,12,29,0.00
2013-5-6,55,50,45,50,47,43,94,91,77,30.31,30.21,21,8,21,0.00
2013-5-7,60,54,47,58,53,45,97,95,92,30.22,30.15,20,8,20,0.00
2013-5-8,60,58,57,59,57,55,96,94,93,30.17,30.10,33,15,33,0.09
2013-5-11,60,58,57,59,57,56,98,96,94,29.89,29.75,30,12,30,0.25
2013-5-12,64,59,55,58,50,30,98,75,32,29.94,29.70,38,11,38,0.25
2013-5-13,57,52,45,40,33,28,66,50,35,30.11,29.94,36,10,39,0.03
2013-5-14,59,50,41,47,38,27,84,64,31,30.13,30.06,32,10,32,0.00
2013-5-15,58,55,51,55,51,47,92,86,75,30.12,29.74,25,9,26,0.00
2013-5-16,65,59,54,57,54,52,95,86,70,29.86,29.73,25,8,26,0.00
2013-5-17,72,62,55,56,47,40,92,60,32,30.26,29.84,18,6,19,0.00
2013-5-18,64,59,56,56,53,50,90,81,67,30.37,30.25,16,6,17,0.00
2013-5-19,58,57,56,57,54,51,97,90,78,30.40,30.22,24,9,24,0.12
2013-5-20,64,60,57,62,59,56,98,97,92,30.22,30.02,23,8,24,0.12
2013-5-21,65,62,59,63,61,58,97,96,92,30.02,29.90,20,8,20,0.00
2013-5-22,65,60,56,64,59,54,97,96,90,29.99,29.91,27,8,27,0.00
2013-5-23,64,62,61,63,61,60,97,96,94,29.97,29.92,26,13,26,0.31
2013-5-25,48,47,47,46,45,45,95,94,93,29.85,29.84,7,6,16,0.00
2013-5-26,57,54,50,42,42,42,73,64,56,29.99,29.96,16,12,27,0.00
2013-5-27,59,56,53,48,48,47,80,74,67,30.23,30.22,12,10,25,0.00
2013-5-28,60,58,53,56,55,50,96,90,83,30.26,30.19,18,6,23,0.26